| time (UTC) | temp C | wind direction | speed KPH | gust KPH | rain 1hr cm | rain 24hr cm | rain mn cm | humidity % | barometer mb |
| 20260510083004 | 11 | 273 | 4.8 | 8.0 | 0.00 | 0.00 | 0.00 | 89 | 1007.2 |
| 20260510082501 | 11 | 326 | 1.6 | 6.4 | 0.00 | 0.00 | 0.00 | 88 | 1007.0 |
| 20260510082000 | 11 | 327 | 3.2 | 9.7 | 0.00 | 0.00 | 0.00 | 88 | 1006.9 |
| 20260510081456 | 11 | 252 | 4.8 | 6.4 | 0.00 | 0.00 | 0.00 | 89 | 1007.2 |
| 20260510080952 | 11 | 290 | 0.0 | 6.4 | 0.00 | 0.00 | 0.00 | 88 | 1006.7 |
| 20260510080450 | 11 | 215 | 0.0 | 4.8 | 0.00 | 0.00 | 0.00 | 88 | 1006.6 |
| 20260510075948 | 11 | 269 | 6.4 | 8.0 | 0.00 | 0.00 | 0.00 | 88 | 1006.7 |
| 20260510075446 | 11 | 303 | 6.4 | 12.9 | 0.00 | 0.00 | 0.00 | 88 | 1006.6 |
| 20260510074942 | 11 | 222 | 4.8 | 6.4 | 0.00 | 0.00 | 0.00 | 89 | 1006.4 |
| 20260510074440 | 11 | 214 | 3.2 | 6.4 | 0.00 | 0.00 | 0.00 | 89 | 1006.5 |
| 20260510073936 | 11 | 262 | 3.2 | 11.3 | 0.00 | 0.00 | 0.00 | 89 | 1006.6 |
| 20260510073431 | 10 | 248 | 3.2 | 8.0 | 0.00 | 0.00 | 0.00 | 89 | 1006.7 |
| 20260510072928 | 10 | 214 | 4.8 | 4.8 | 0.00 | 0.00 | 0.00 | 89 | 1006.5 |
| 20260510072425 | 10 | 300 | 3.2 | 4.8 | 0.00 | 0.00 | 0.00 | 89 | 1006.7 |
| 20260510071920 | 11 | 220 | 3.2 | 6.4 | 0.00 | 0.00 | 0.00 | 89 | 1006.5 |
| 20260510071417 | 10 | 288 | 1.6 | 9.7 | 0.00 | 0.00 | 0.00 | 89 | 1006.4 |
| 20260510070916 | 10 | 238 | 3.2 | 6.4 | 0.00 | 0.00 | 0.00 | 89 | 1006.3 |
| 20260510070413 | 10 | 327 | 0.0 | 3.2 | 0.00 | 0.00 | 0.00 | 89 | 1006.2 |
| 20260510065908 | 10 | 268 | 0.0 | 4.8 | 0.00 | 0.00 | 0.00 | 89 | 1006.2 |
| 20260510065405 | 10 | 291 | 3.2 | 9.7 | 0.00 | 0.00 | 0.00 | 89 | 1006.2 |
| 20260510064901 | 11 | 228 | 3.2 | 9.7 | 0.00 | 0.00 | 0.00 | 88 | 1006.1 |
| 20260510064359 | 11 | 269 | 3.2 | 8.0 | 0.00 | 0.00 | 0.00 | 89 | 1006.0 |
| 20260510063855 | 11 | 297 | 3.2 | 8.0 | 0.00 | 0.00 | 0.00 | 88 | 1006.1 |
| 20260510063351 | 11 | 291 | 3.2 | 8.0 | 0.00 | 0.00 | 0.00 | 89 | 1006.1 |
| 20260510062848 | 11 | 214 | 4.8 | 6.4 | 0.00 | 0.00 | 0.00 | 89 | 1005.9 |
| 20260510062343 | 11 | 256 | 3.2 | 12.9 | 0.00 | 0.00 | 0.00 | 89 | 1006.1 |
| 20260510061839 | 11 | 337 | 0.0 | 6.4 | 0.00 | 0.00 | 0.00 | 89 | 1006.2 |
| 20260510061336 | 11 | 275 | 3.2 | 14.5 | 0.00 | 0.00 | 0.00 | 89 | 1006.2 |
| 20260510060832 | 11 | 230 | 4.8 | 6.4 | 0.00 | 0.00 | 0.00 | 89 | 1006.1 |
| 20260510060330 | 11 | 315 | 0.0 | 9.7 | 0.00 | 0.00 | 0.00 | 89 | 1006.1 |
| 20260510055826 | 11 | 240 | 9.7 | 17.7 | 0.00 | 0.00 | 0.00 | 90 | 1006.0 |
| 20260510055325 | 11 | 260 | 0.0 | 9.7 | 0.00 | 0.00 | 0.00 | 89 | 1005.9 |
| 20260510054824 | 11 | 248 | 1.6 | 8.0 | 0.00 | 0.00 | 0.00 | 89 | 1006.1 |
| 20260510054320 | 11 | 230 | 3.2 | 8.0 | 0.00 | 0.00 | 0.00 | 89 | 1006.0 |
| 20260510053815 | 11 | 256 | 3.2 | 9.7 | 0.00 | 0.00 | 0.00 | 89 | 1006.0 |
| 20260510053311 | 11 | 202 | 8.0 | 8.0 | 0.00 | 0.00 | 0.00 | 89 | 1005.9 |
| 20260510052808 | 11 | 241 | 12.9 | 17.7 | 0.00 | 0.00 | 0.00 | 89 | 1005.9 |
| 20260510052306 | 11 | 256 | 3.2 | 4.8 | 0.00 | 0.00 | 0.00 | 89 | 1005.8 |
| 20260510051759 | 11 | 272 | 4.8 | 16.1 | 0.00 | 0.00 | 0.00 | 89 | 1005.8 |
| 20260510051256 | 11 | 222 | 1.6 | 12.9 | 0.00 | 0.00 | 0.00 | 89 | 1005.7 |
| 20260510050753 | 11 | 225 | 4.8 | 12.9 | 0.00 | 0.00 | 0.00 | 89 | 1005.6 |
| 20260510050250 | 11 | 250 | 4.8 | 14.5 | 0.00 | 0.00 | 0.00 | 89 | 1005.7 |
| 20260510045748 | 11 | 262 | 1.6 | 14.5 | 0.00 | 0.00 | 0.00 | 89 | 1005.5 |
| 20260510045244 | 11 | 258 | 3.2 | 12.9 | 0.00 | 0.00 | 0.00 | 89 | 1005.5 |
| 20260510044741 | 11 | 248 | 3.2 | 17.7 | 0.00 | 0.00 | 0.00 | 89 | 1005.5 |
| 20260510044239 | 11 | 234 | 3.2 | 14.5 | 0.00 | 0.00 | 0.00 | 89 | 1005.4 |
| 20260510043733 | 11 | 260 | 6.4 | 11.3 | 0.00 | 0.00 | 0.00 | 90 | 1005.4 |
| 20260510043231 | 11 | 295 | 6.4 | 14.5 | 0.00 | 0.00 | 0.00 | 90 | 1005.3 |
| 20260510042728 | 11 | 223 | 11.3 | 20.9 | 0.00 | 0.00 | 0.00 | 91 | 1005.3 |
| 20260510042223 | 11 | 252 | 0.0 | 9.7 | 0.00 | 0.00 | 0.00 | 91 | 1005.2 |
| 20260510041721 | 11 | 253 | 6.4 | 19.3 | 0.00 | 0.00 | 0.00 | 92 | 1005.3 |
| 20260510041218 | 11 | 199 | 1.6 | 19.3 | 0.00 | 0.00 | 0.00 | 93 | 1005.4 |
| 20260510040715 | 11 | 224 | 3.2 | 6.4 | 0.00 | 0.00 | 0.00 | 92 | 1005.2 |
| 20260510040211 | 11 | 256 | 1.6 | 14.5 | 0.00 | 0.00 | 0.00 | 93 | 1005.3 |
| 20260510035707 | 11 | 261 | 1.6 | 9.7 | 0.00 | 0.20 | 0.20 | 92 | 1005.2 |
| 20260510035203 | 11 | 226 | 4.8 | 6.4 | 0.00 | 0.20 | 0.20 | 92 | 1005.0 |
| 20260510034659 | 11 | 205 | 6.4 | 9.7 | 0.05 | 0.20 | 0.20 | 91 | 1004.8 |
| 20260510034156 | 11 | 235 | 8.0 | 14.5 | 0.30 | 0.20 | 0.20 | 90 | 1004.8 |
| 20260510033653 | 11 | 223 | 6.4 | 14.5 | 0.36 | 0.18 | 0.18 | 89 | 1005.5 |
| 20260510033151 | 11 | 288 | 4.8 | 16.1 | 0.23 | 0.15 | 0.15 | 88 | 1005.4 |
| 20260510032647 | 11 | 253 | 6.4 | 16.1 | 0.23 | 0.13 | 0.13 | 88 | 1005.2 |
| 20260510032142 | 12 | 221 | 9.7 | 16.1 | 0.43 | 0.10 | 0.10 | 87 | 1005.2 |
| 20260510031637 | 12 | 262 | 6.4 | 20.9 | 0.43 | 0.08 | 0.08 | 84 | 1005.5 |
| 20260510031135 | 12 | 294 | 8.0 | 20.9 | 0.18 | 0.03 | 0.03 | 82 | 1004.8 |
| 20260510030634 | 12 | 227 | 11.3 | 22.5 | 0.05 | 0.00 | 0.00 | 78 | 1004.4 |
| 20260510030132 | 13 | 253 | 6.4 | 20.9 | 0.00 | 0.00 | 0.00 | 75 | 1004.2 |
| 20260510025629 | 13 | 237 | 4.8 | 25.7 | 0.00 | 0.00 | 0.00 | 74 | 1004.0 |
| 20260510025126 | 13 | 234 | 12.9 | 20.9 | 0.00 | 0.00 | 0.00 | 73 | 1004.1 |
| 20260510024623 | 13 | 209 | 8.0 | 16.1 | 0.00 | 0.00 | 0.00 | 72 | 1003.9 |
| 20260510024120 | 13 | 229 | 9.7 | 16.1 | 0.00 | 0.00 | 0.00 | 73 | 1004.1 |
| 20260510023616 | 13 | 232 | 24.1 | 25.7 | 0.00 | 0.00 | 0.00 | 72 | 1004.2 |
| 20260510023114 | 13 | 194 | 3.2 | 17.7 | 0.00 | 0.00 | 0.00 | 72 | 1004.1 |
| 20260510022613 | 13 | 219 | 6.4 | 17.7 | 0.00 | 0.00 | 0.00 | 73 | 1004.0 |
| 20260510022108 | 13 | 211 | 6.4 | 22.5 | 0.00 | 0.00 | 0.00 | 72 | 1003.8 |
| 20260510021604 | 13 | 209 | 11.3 | 24.1 | 0.00 | 0.00 | 0.00 | 73 | 1003.7 |
| 20260510021102 | 13 | 203 | 6.4 | 24.1 | 0.00 | 0.00 | 0.00 | 72 | 1003.9 |
| 20260510020601 | 13 | 215 | 6.4 | 11.3 | 0.00 | 0.00 | 0.00 | 72 | 1003.7 |
| 20260510020057 | 12 | 200 | 6.4 | 9.7 | 0.00 | 0.00 | 0.00 | 73 | 1003.5 |
| 20260510015553 | 12 | 202 | 3.2 | 17.7 | 0.00 | 0.00 | 0.00 | 73 | 1003.7 |
| 20260510015050 | 13 | 204 | 4.8 | 17.7 | 0.00 | 0.00 | 0.00 | 72 | 1003.8 |
| 20260510014546 | 12 | 222 | 11.3 | 14.5 | 0.00 | 0.00 | 0.00 | 72 | 1004.0 |
| 20260510014043 | 12 | 189 | 8.0 | 9.7 | 0.00 | 0.00 | 0.00 | 73 | 1004.2 |
| 20260510013538 | 12 | 213 | 6.4 | 11.3 | 0.00 | 0.00 | 0.00 | 73 | 1004.3 |
| 20260510013034 | 12 | 203 | 3.2 | 12.9 | 0.00 | 0.00 | 0.00 | 72 | 1004.3 |
| 20260510012528 | 12 | 217 | 0.0 | 8.0 | 0.00 | 0.00 | 0.00 | 72 | 1004.4 |
| 20260510012025 | 12 | 180 | 3.2 | 9.7 | 0.00 | 0.00 | 0.00 | 72 | 1004.2 |
| 20260510011524 | 12 | 205 | 4.8 | 12.9 | 0.00 | 0.00 | 0.00 | 72 | 1004.1 |
| 20260510011020 | 12 | 207 | 0.0 | 8.0 | 0.00 | 0.00 | 0.00 | 71 | 1004.2 |
| 20260510010517 | 13 | 194 | 3.2 | 9.7 | 0.00 | 0.00 | 0.00 | 71 | 1004.2 |
| 20260510010014 | 12 | 214 | 4.8 | 9.7 | 0.00 | 0.00 | 0.00 | 71 | 1004.3 |
| 20260510005509 | 13 | 151 | 0.0 | 4.8 | 0.00 | 0.00 | 0.00 | 70 | 1004.2 |
| 20260510005008 | 13 | 194 | 3.2 | 4.8 | 0.00 | 0.00 | 0.00 | 70 | 1004.2 |
| 20260510004505 | 13 | 113 | 1.6 | 6.4 | 0.00 | 0.00 | 0.00 | 69 | 1004.1 |
| 20260510004003 | 13 | 207 | 6.4 | 9.7 | 0.00 | 0.00 | 0.00 | 69 | 1004.3 |
| 20260510003459 | 13 | 239 | 0.0 | 4.8 | 0.00 | 0.00 | 0.00 | 70 | 1004.1 |
| 20260510002954 | 13 | 182 | 3.2 | 6.4 | 0.00 | 0.00 | 0.00 | 69 | 1003.9 |
| 20260510002450 | 13 | 108 | 1.6 | 6.4 | 0.00 | 0.00 | 0.00 | 68 | 1004.2 |
| 20260510001947 | 13 | 164 | 3.2 | 6.4 | 0.00 | 0.00 | 0.00 | 68 | 1004.5 |
| 20260510001444 | 13 | 220 | 3.2 | 4.8 | 0.00 | 0.00 | 0.00 | 68 | 1004.3 |
| 20260510000942 | 13 | 203 | 6.4 | 6.4 | 0.00 | 0.00 | 0.00 | 67 | 1004.3 |
| 20260510000440 | 14 | 194 | 1.6 | 8.0 | 0.00 | 0.00 | 0.00 | 66 | 1004.6 |
| 20260509235935 | 14 | 181 | 3.2 | 6.4 | 0.00 | 0.00 | 0.00 | 66 | 1004.4 |
| 20260509235432 | 14 | 191 | 3.2 | 4.8 | 0.00 | 0.00 | 0.00 | 65 | 1004.3 |
| 20260509234928 | 15 | 173 | 1.6 | 9.7 | 0.00 | 0.00 | 0.00 | 64 | 1004.6 |
| 20260509234425 | 15 | 213 | 8.0 | 11.3 | 0.00 | 0.00 | 0.00 | 63 | 1004.5 |
| 20260509233923 | 15 | 193 | 0.0 | 14.5 | 0.00 | 0.00 | 0.00 | 63 | 1004.5 |
| 20260509233420 | 15 | 233 | 11.3 | 11.3 | 0.00 | 0.00 | 0.00 | 62 | 1004.5 |
| 20260509232916 | 15 | 250 | 3.2 | 9.7 | 0.00 | 0.00 | 0.00 | 63 | 1004.6 |
| 20260509232414 | 15 | 256 | 6.4 | 22.5 | 0.00 | 0.00 | 0.00 | 62 | 1004.6 |
| 20260509231909 | 15 | 197 | 4.8 | 17.7 | 0.00 | 0.00 | 0.00 | 61 | 1004.6 |
| 20260509231406 | 15 | 240 | 6.4 | 20.9 | 0.00 | 0.00 | 0.00 | 61 | 1004.6 |
| 20260509230904 | 15 | 232 | 9.7 | 17.7 | 0.00 | 0.00 | 0.00 | 60 | 1004.5 |
| 20260509230401 | 15 | 215 | 12.9 | 22.5 | 0.00 | 0.00 | 0.00 | 59 | 1004.5 |
| 20260509225857 | 15 | 220 | 12.9 | 17.7 | 0.00 | 0.00 | 0.00 | 59 | 1004.6 |
| 20260509225354 | 15 | 214 | 9.7 | 22.5 | 0.00 | 0.00 | 0.00 | 59 | 1004.5 |
| 20260509224849 | 16 | 222 | 24.1 | 24.1 | 0.00 | 0.00 | 0.00 | 58 | 1004.5 |
| 20260509224345 | 16 | 316 | 3.2 | 11.3 | 0.00 | 0.00 | 0.00 | 58 | 1004.5 |
| 20260509223842 | 16 | 208 | 12.9 | 20.9 | 0.00 | 0.00 | 0.00 | 57 | 1004.3 |
| 20260509223339 | 15 | 234 | 6.4 | 24.1 | 0.00 | 0.00 | 0.00 | 57 | 1004.7 |
| 20260509222836 | 15 | 243 | 4.8 | 19.3 | 0.00 | 0.00 | 0.00 | 58 | 1004.5 |
| 20260509222331 | 15 | 254 | 11.3 | 20.9 | 0.00 | 0.00 | 0.00 | 58 | 1004.6 |
| 20260509221827 | 15 | 221 | 8.0 | 16.1 | 0.00 | 0.00 | 0.00 | 59 | 1004.5 |
| 20260509221325 | 15 | 227 | 12.9 | 20.9 | 0.00 | 0.00 | 0.00 | 58 | 1004.4 |
| 20260509220825 | 15 | 251 | 6.4 | 22.5 | 0.00 | 0.00 | 0.00 | 59 | 1004.4 |
| 20260509220321 | 16 | 247 | 12.9 | 41.8 | 0.00 | 0.00 | 0.00 | 58 | 1004.4 |
| 20260509215817 | 16 | 282 | 9.7 | 19.3 | 0.00 | 0.00 | 0.00 | 57 | 1004.5 |
| 20260509215314 | 16 | 289 | 4.8 | 22.5 | 0.00 | 0.00 | 0.00 | 57 | 1004.9 |
| 20260509214811 | 16 | 269 | 11.3 | 20.9 | 0.00 | 0.00 | 0.00 | 55 | 1004.6 |
| 20260509214308 | 16 | 246 | 11.3 | 17.7 | 0.00 | 0.00 | 0.00 | 56 | 1004.7 |
| 20260509213805 | 16 | 244 | 17.7 | 29.0 | 0.00 | 0.00 | 0.00 | 57 | 1004.6 |
| 20260509213300 | 16 | 231 | 16.1 | 30.6 | 0.00 | 0.00 | 0.00 | 56 | 1004.5 |
| 20260509212758 | 16 | 247 | 8.0 | 32.2 | 0.00 | 0.00 | 0.00 | 56 | 1004.7 |
| 20260509212255 | 16 | 254 | 19.3 | 27.4 | 0.00 | 0.00 | 0.00 | 55 | 1004.8 |
| 20260509211750 | 17 | 269 | 8.0 | 20.9 | 0.00 | 0.00 | 0.00 | 54 | 1004.7 |
| 20260509211247 | 16 | 246 | 12.9 | 33.8 | 0.00 | 0.00 | 0.00 | 54 | 1004.6 |
| 20260509210744 | 16 | 225 | 20.9 | 29.0 | 0.00 | 0.00 | 0.00 | 53 | 1004.5 |
| 20260509210242 | 17 | 276 | 11.3 | 25.7 | 0.00 | 0.00 | 0.00 | 51 | 1004.5 |
| 20260509205741 | 17 | 240 | 14.5 | 30.6 | 0.00 | 0.00 | 0.00 | 51 | 1004.6 |
| 20260509205236 | 18 | 238 | 12.9 | 17.7 | 0.00 | 0.00 | 0.00 | 49 | 1004.5 |
| 20260509204732 | 17 | 213 | 11.3 | 11.3 | 0.00 | 0.00 | 0.00 | 49 | 1004.4 |
| 20260509204229 | 17 | 230 | 20.9 | 24.1 | 0.00 | 0.00 | 0.00 | 48 | 1004.5 |
| 20260509203724 | 17 | 268 | 8.0 | 30.6 | 0.00 | 0.00 | 0.00 | 48 | 1004.5 |
| 20260509203223 | 17 | 224 | 14.5 | 22.5 | 0.00 | 0.00 | 0.00 | 48 | 1004.7 |
| 20260509202718 | 17 | 233 | 17.7 | 19.3 | 0.00 | 0.00 | 0.00 | 47 | 1004.9 |
| 20260509202214 | 18 | 238 | 20.9 | 33.8 | 0.00 | 0.00 | 0.00 | 44 | 1004.7 |
| 20260509201709 | 19 | 227 | 9.7 | 25.7 | 0.00 | 0.00 | 0.00 | 42 | 1004.6 |
| 20260509201206 | 18 | 229 | 9.7 | 24.1 | 0.00 | 0.00 | 0.00 | 43 | 1004.6 |
| 20260509200702 | 18 | 251 | 8.0 | 20.9 | 0.00 | 0.00 | 0.00 | 39 | 1004.2 |
| 20260509200157 | 18 | 243 | 12.9 | 17.7 | 0.00 | 0.00 | 0.00 | 39 | 1004.4 |
| 20260509195653 | 17 | 231 | 19.3 | 25.7 | 0.00 | 0.00 | 0.00 | 39 | 1004.4 |
| 20260509195149 | 18 | 225 | 14.5 | 20.9 | 0.00 | 0.00 | 0.00 | 38 | 1004.5 |
| 20260509194648 | 19 | 220 | 12.9 | 24.1 | 0.00 | 0.00 | 0.00 | 39 | 1004.6 |
| 20260509194146 | 18 | 227 | 8.0 | 12.9 | 0.00 | 0.00 | 0.00 | 39 | 1004.6 |
| 20260509193641 | 18 | 256 | 4.8 | 17.7 | 0.00 | 0.00 | 0.00 | 38 | 1004.7 |
| 20260509193137 | 17 | 230 | 17.7 | 24.1 | 0.00 | 0.00 | 0.00 | 38 | 1005.0 |
| 20260509192634 | 17 | 237 | 4.8 | 17.7 | 0.00 | 0.00 | 0.00 | 39 | 1005.0 |
| 20260509192130 | 18 | 230 | 9.7 | 25.7 | 0.00 | 0.00 | 0.00 | 36 | 1005.1 |
| 20260509191629 | 18 | 231 | 8.0 | 17.7 | 0.00 | 0.00 | 0.00 | 39 | 1005.3 |
| 20260509191126 | 18 | 285 | 12.9 | 24.1 | 0.00 | 0.00 | 0.00 | 38 | 1005.4 |
| 20260509190623 | 17 | 244 | 12.9 | 17.7 | 0.00 | 0.00 | 0.00 | 40 | 1005.2 |
| 20260509190120 | 18 | 233 | 17.7 | 20.9 | 0.00 | 0.00 | 0.00 | 38 | 1005.3 |
| 20260509185618 | 17 | 221 | 12.9 | 19.3 | 0.00 | 0.00 | 0.00 | 38 | 1005.4 |
| 20260509185113 | 18 | 236 | 6.4 | 19.3 | 0.00 | 0.00 | 0.00 | 40 | 1005.5 |
| 20260509184612 | 18 | 205 | 14.5 | 20.9 | 0.00 | 0.00 | 0.00 | 39 | 1005.3 |
| 20260509184108 | 18 | 238 | 11.3 | 19.3 | 0.00 | 0.00 | 0.00 | 41 | 1005.4 |
| 20260509183603 | 18 | 225 | 8.0 | 14.5 | 0.00 | 0.00 | 0.00 | 42 | 1005.6 |
| 20260509183059 | 18 | 279 | 0.0 | 11.3 | 0.00 | 0.00 | 0.00 | 45 | 1005.4 |
| 20260509182556 | 18 | 242 | 3.2 | 11.3 | 0.00 | 0.00 | 0.00 | 42 | 1005.6 |
| 20260509182053 | 17 | 221 | 6.4 | 9.7 | 0.00 | 0.00 | 0.00 | 43 | 1005.6 |
| 20260509181551 | 17 | 201 | 3.2 | 12.9 | 0.00 | 0.00 | 0.00 | 45 | 1005.6 |
| 20260509181048 | 18 | 241 | 11.3 | 22.5 | 0.00 | 0.00 | 0.00 | 41 | 1005.8 |
| 20260509180544 | 18 | 200 | 6.4 | 12.9 | 0.00 | 0.00 | 0.00 | 41 | 1005.6 |
| 20260509180042 | 17 | 229 | 6.4 | 11.3 | 0.00 | 0.00 | 0.00 | 42 | 1005.9 |
| 20260509175537 | 17 | 179 | 6.4 | 27.4 | 0.00 | 0.00 | 0.00 | 42 | 1006.0 |
| 20260509175034 | 17 | 181 | 8.0 | 19.3 | 0.00 | 0.00 | 0.00 | 40 | 1005.9 |
| 20260509174531 | 16 | 222 | 12.9 | 20.9 | 0.00 | 0.00 | 0.00 | 41 | 1006.1 |
| 20260509174026 | 16 | 215 | 8.0 | 19.3 | 0.00 | 0.00 | 0.00 | 40 | 1006.1 |
| 20260509173520 | 16 | 233 | 4.8 | 11.3 | 0.00 | 0.00 | 0.00 | 39 | 1006.2 |
| 20260509173017 | 17 | 226 | 6.4 | 12.9 | 0.00 | 0.00 | 0.00 | 40 | 1006.2 |
| 20260509172514 | 17 | 274 | 14.5 | 27.4 | 0.00 | 0.00 | 0.00 | 39 | 1005.9 |
| 20260509172009 | 17 | 211 | 14.5 | 14.5 | 0.00 | 0.00 | 0.00 | 39 | 1006.3 |
| 20260509171506 | 17 | 233 | 14.5 | 22.5 | 0.00 | 0.00 | 0.00 | 36 | 1006.3 |
| 20260509171002 | 18 | 247 | 9.7 | 17.7 | 0.00 | 0.00 | 0.00 | 36 | 1006.3 |
| 20260509170458 | 18 | 213 | 8.0 | 14.5 | 0.00 | 0.00 | 0.00 | 34 | 1006.2 |
| 20260509165954 | 18 | 247 | 9.7 | 14.5 | 0.00 | 0.00 | 0.00 | 36 | 1006.3 |
| 20260509165452 | 18 | 204 | 6.4 | 11.3 | 0.00 | 0.00 | 0.00 | 36 | 1006.3 |
| 20260509164949 | 17 | 260 | 3.2 | 14.5 | 0.00 | 0.00 | 0.00 | 34 | 1006.5 |
| 20260509164445 | 17 | 264 | 4.8 | 12.9 | 0.00 | 0.00 | 0.00 | 35 | 1006.6 |
| 20260509163940 | 17 | 221 | 6.4 | 11.3 | 0.00 | 0.00 | 0.00 | 38 | 1006.8 |
| 20260509163438 | 17 | 272 | 6.4 | 17.7 | 0.00 | 0.00 | 0.00 | 33 | 1007.0 |
| 20260509162937 | 18 | 233 | 3.2 | 16.1 | 0.00 | 0.00 | 0.00 | 35 | 1006.8 |
| 20260509162436 | 17 | 276 | 4.8 | 12.9 | 0.00 | 0.00 | 0.00 | 33 | 1007.1 |
| 20260509161931 | 17 | 241 | 14.5 | 16.1 | 0.00 | 0.00 | 0.00 | 31 | 1007.2 |
| 20260509161428 | 17 | 225 | 14.5 | 16.1 | 0.00 | 0.00 | 0.00 | 32 | 1007.0 |
| 20260509160924 | 17 | 224 | 17.7 | 22.5 | 0.00 | 0.00 | 0.00 | 32 | 1007.3 |
| 20260509160420 | 18 | 141 | 0.0 | 4.8 | 0.00 | 0.00 | 0.00 | 38 | 1007.3 |
| 20260509155915 | 17 | 217 | 4.8 | 11.3 | 0.00 | 0.00 | 0.00 | 38 | 1007.4 |
| 20260509155412 | 17 | 221 | 12.9 | 17.7 | 0.00 | 0.00 | 0.00 | 35 | 1007.5 |
| 20260509154909 | 17 | 241 | 4.8 | 19.3 | 0.00 | 0.00 | 0.00 | 32 | 1007.5 |
| 20260509154405 | 17 | 208 | 9.7 | 11.3 | 0.00 | 0.00 | 0.00 | 32 | 1007.7 |
| 20260509153901 | 17 | 226 | 4.8 | 8.0 | 0.00 | 0.00 | 0.00 | 36 | 1007.6 |
| 20260509153359 | 17 | 238 | 3.2 | 11.3 | 0.00 | 0.00 | 0.00 | 39 | 1007.9 |
| 20260509152856 | 17 | 224 | 3.2 | 9.7 | 0.00 | 0.00 | 0.00 | 37 | 1007.9 |
| 20260509152352 | 17 | 205 | 16.1 | 17.7 | 0.00 | 0.00 | 0.00 | 34 | 1008.2 |
| 20260509151849 | 16 | 83 | 1.6 | 11.3 | 0.00 | 0.00 | 0.00 | 35 | 1008.1 |
| 20260509151345 | 17 | 230 | 8.0 | 9.7 | 0.00 | 0.00 | 0.00 | 32 | 1008.1 |
| 20260509150843 | 16 | 205 | 3.2 | 9.7 | 0.00 | 0.00 | 0.00 | 34 | 1008.2 |
| 20260509150341 | 16 | 198 | 8.0 | 16.1 | 0.00 | 0.00 | 0.00 | 31 | 1008.1 |
| 20260509145838 | 16 | 208 | 9.7 | 19.3 | 0.00 | 0.00 | 0.00 | 33 | 1008.3 |
| 20260509145333 | 16 | 203 | 4.8 | 8.0 | 0.00 | 0.00 | 0.00 | 40 | 1008.2 |
| 20260509144830 | 16 | 206 | 6.4 | 17.7 | 0.00 | 0.00 | 0.00 | 35 | 1008.4 |
| 20260509144326 | 15 | 229 | 12.9 | 17.7 | 0.00 | 0.00 | 0.00 | 36 | 1008.4 |
| 20260509143823 | 15 | 225 | 14.5 | 16.1 | 0.00 | 0.00 | 0.00 | 38 | 1008.4 |
| 20260509143321 | 15 | 231 | 12.9 | 22.5 | 0.00 | 0.00 | 0.00 | 37 | 1008.5 |
| 20260509142817 | 15 | 204 | 6.4 | 16.1 | 0.00 | 0.00 | 0.00 | 38 | 1008.7 |
| 20260509142313 | 15 | 209 | 14.5 | 16.1 | 0.00 | 0.00 | 0.00 | 38 | 1008.7 |
| 20260509141809 | 15 | 197 | 8.0 | 11.3 | 0.00 | 0.00 | 0.00 | 38 | 1008.6 |
| 20260509141306 | 15 | 203 | 8.0 | 12.9 | 0.00 | 0.00 | 0.00 | 39 | 1009.1 |
| 20260509140803 | 15 | 214 | 11.3 | 17.7 | 0.00 | 0.00 | 0.00 | 38 | 1008.9 |
| 20260509140300 | 15 | 214 | 9.7 | 25.7 | 0.00 | 0.00 | 0.00 | 38 | 1008.9 |
| 20260509135758 | 15 | 222 | 4.8 | 17.7 | 0.00 | 0.00 | 0.00 | 40 | 1008.9 |
| 20260509135255 | 14 | 200 | 9.7 | 24.1 | 0.00 | 0.00 | 0.00 | 38 | 1009.1 |
| 20260509134752 | 14 | 232 | 17.7 | 19.3 | 0.00 | 0.00 | 0.00 | 40 | 1009.2 |
| 20260509134249 | 14 | 210 | 6.4 | 17.7 | 0.00 | 0.00 | 0.00 | 39 | 1009.2 |
| 20260509133746 | 14 | 221 | 6.4 | 20.9 | 0.00 | 0.00 | 0.00 | 40 | 1009.2 |
| 20260509133243 | 14 | 190 | 12.9 | 17.7 | 0.00 | 0.00 | 0.00 | 40 | 1009.2 |
| 20260509132742 | 14 | 237 | 6.4 | 24.1 | 0.00 | 0.00 | 0.00 | 42 | 1009.2 |
| 20260509132240 | 14 | 205 | 4.8 | 9.7 | 0.00 | 0.00 | 0.00 | 41 | 1009.1 |
| 20260509131736 | 14 | 52 | 1.6 | 20.9 | 0.00 | 0.00 | 0.00 | 41 | 1009.2 |
| 20260509131233 | 14 | 216 | 14.5 | 19.3 | 0.00 | 0.00 | 0.00 | 40 | 1009.1 |
| 20260509130729 | 13 | 241 | 6.4 | 22.5 | 0.00 | 0.00 | 0.00 | 40 | 1009.1 |
| 20260509130225 | 13 | 239 | 8.0 | 12.9 | 0.00 | 0.00 | 0.00 | 40 | 1009.4 |
| 20260509125722 | 13 | 198 | 4.8 | 9.7 | 0.00 | 0.00 | 0.00 | 41 | 1009.1 |
| 20260509125219 | 13 | 227 | 3.2 | 19.3 | 0.00 | 0.00 | 0.00 | 40 | 1008.9 |
| 20260509124715 | 12 | 200 | 4.8 | 14.5 | 0.00 | 0.00 | 0.00 | 39 | 1009.3 |
| 20260509124212 | 12 | 233 | 4.8 | 8.0 | 0.00 | 0.00 | 0.00 | 41 | 1009.3 |
| 20260509123710 | 12 | 210 | 8.0 | 11.3 | 0.00 | 0.00 | 0.00 | 40 | 1009.4 |
| 20260509123207 | 12 | 208 | 3.2 | 12.9 | 0.00 | 0.00 | 0.00 | 41 | 1009.3 |
| 20260509122702 | 12 | 212 | 4.8 | 14.5 | 0.00 | 0.00 | 0.00 | 42 | 1009.4 |
| 20260509122200 | 11 | 208 | 4.8 | 11.3 | 0.00 | 0.00 | 0.00 | 41 | 1009.5 |
| 20260509121656 | 11 | 244 | 3.2 | 14.5 | 0.00 | 0.00 | 0.00 | 41 | 1009.5 |
| 20260509121154 | 11 | 204 | 12.9 | 12.9 | 0.00 | 0.00 | 0.00 | 41 | 1009.5 |
| 20260509120652 | 11 | 234 | 3.2 | 8.0 | 0.00 | 0.00 | 0.00 | 42 | 1009.5 |
| 20260509120149 | 10 | 190 | 4.8 | 6.4 | 0.00 | 0.00 | 0.00 | 43 | 1009.4 |
| 20260509115647 | 10 | 238 | 9.7 | 11.3 | 0.00 | 0.00 | 0.00 | 44 | 1009.6 |
| 20260509115144 | 10 | 182 | 3.2 | 14.5 | 0.00 | 0.00 | 0.00 | 43 | 1009.4 |
| 20260509114642 | 10 | 213 | 4.8 | 8.0 | 0.00 | 0.00 | 0.00 | 45 | 1009.5 |
| 20260509114141 | 9 | 246 | 3.2 | 14.5 | 0.00 | 0.00 | 0.00 | 45 | 1009.5 |
| 20260509113639 | 9 | 211 | 4.8 | 14.5 | 0.00 | 0.00 | 0.00 | 47 | 1009.5 |
| 20260509113136 | 9 | 197 | 4.8 | 14.5 | 0.00 | 0.00 | 0.00 | 46 | 1009.4 |
| 20260509112632 | 8 | 201 | 1.6 | 9.7 | 0.00 | 0.00 | 0.00 | 48 | 1009.3 |
| 20260509112130 | 8 | 200 | 6.4 | 8.0 | 0.00 | 0.00 | 0.00 | 48 | 1009.5 |
| 20260509111626 | 8 | 220 | 3.2 | 9.7 | 0.00 | 0.00 | 0.00 | 49 | 1009.5 |
| 20260509111123 | 8 | 238 | 1.6 | 6.4 | 0.00 | 0.00 | 0.00 | 50 | 1009.4 |
| 20260509110620 | 7 | 213 | 3.2 | 6.4 | 0.00 | 0.00 | 0.00 | 50 | 1009.4 |
| 20260509110118 | 7 | 251 | 3.2 | 6.4 | 0.00 | 0.00 | 0.00 | 51 | 1009.4 |
| 20260509105615 | 7 | 106 | 3.2 | 4.8 | 0.00 | 0.00 | 0.00 | 52 | 1009.4 |
| 20260509105113 | 7 | 214 | 3.2 | 3.2 | 0.00 | 0.00 | 0.00 | 52 | 1009.2 |
| 20260509104610 | 7 | 187 | 4.8 | 6.4 | 0.00 | 0.00 | 0.00 | 52 | 1009.2 |
| 20260509104108 | 6 | 237 | 0.0 | 8.0 | 0.00 | 0.00 | 0.00 | 53 | 1009.2 |
| 20260509103604 | 6 | 224 | 0.0 | 3.2 | 0.00 | 0.00 | 0.00 | 54 | 1009.3 |
| 20260509103102 | 6 | 201 | 1.6 | 4.8 | 0.00 | 0.00 | 0.00 | 55 | 1009.2 |
| 20260509102559 | 5 | 242 | 0.0 | 6.4 | 0.00 | 0.00 | 0.00 | 56 | 1009.4 |
| 20260509102056 | 5 | 184 | 0.0 | 3.2 | 0.00 | 0.00 | 0.00 | 56 | 1009.3 |
| 20260509101552 | 5 | 154 | 1.6 | 4.8 | 0.00 | 0.00 | 0.00 | 57 | 1009.2 |
| 20260509101049 | 5 | 168 | 1.6 | 3.2 | 0.00 | 0.00 | 0.00 | 58 | 1009.5 |
| 20260509100546 | 5 | 82 | 0.0 | 3.2 | 0.00 | 0.00 | 0.00 | 58 | 1009.4 |
| 20260509100044 | 5 | 205 | 3.2 | 3.2 | 0.00 | 0.00 | 0.00 | 58 | 1009.4 |
| 20260509095540 | 5 | 185 | 0.0 | 4.8 | 0.00 | 0.00 | 0.00 | 58 | 1009.3 |
| 20260509095038 | 5 | 103 | 3.2 | 3.2 | 0.00 | 0.00 | 0.00 | 57 | 1009.5 |
| 20260509094534 | 5 | 239 | 0.0 | 4.8 | 0.00 | 0.00 | 0.00 | 58 | 1009.3 |
| 20260509094031 | 4 | 164 | 1.6 | 3.2 | 0.00 | 0.00 | 0.00 | 58 | 1009.4 |
| 20260509093530 | 5 | 150 | 1.6 | 3.2 | 0.00 | 0.00 | 0.00 | 58 | 1009.5 |
| 20260509093027 | 5 | 195 | 0.0 | 3.2 | 0.00 | 0.00 | 0.00 | 58 | 1009.3 |
| 20260509092524 | 5 | 42 | 0.0 | 3.2 | 0.00 | 0.00 | 0.00 | 57 | 1009.4 |
| 20260509092023 | 4 | 240 | 0.0 | 3.2 | 0.00 | 0.00 | 0.00 | 58 | 1009.5 |
| 20260509091520 | 4 | 157 | 1.6 | 3.2 | 0.00 | 0.00 | 0.00 | 58 | 1009.3 |
| 20260509091016 | 4 | 34 | 0.0 | 4.8 | 0.00 | 0.00 | 0.00 | 58 | 1009.4 |
| 20260509090514 | 4 | 121 | 0.0 | 1.6 | 0.00 | 0.00 | 0.00 | 58 | 1009.5 |
| 20260509090012 | 4 | 127 | 0.0 | 1.6 | 0.00 | 0.00 | 0.00 | 57 | 1009.5 |
| 20260509085508 | 4 | 96 | 1.6 | 3.2 | 0.00 | 0.00 | 0.00 | 57 | 1009.5 |
| 20260509085004 | 4 | 173 | 0.0 | 3.2 | 0.00 | 0.00 | 0.00 | 58 | 1009.4 |
| 20260509084502 | 4 | 191 | 0.0 | 4.8 | 0.00 | 0.00 | 0.00 | 58 | 1009.5 |
| 20260509083959 | 4 | 68 | 3.2 | 4.8 | 0.00 | 0.00 | 0.00 | 57 | 1009.5 |
| 20260509083456 | 4 | 81 | 0.0 | 3.2 | 0.00 | 0.00 | 0.00 | 57 | 1009.7 |